Time;durP1;ratioP1;P1;durP2;ratioP2;P2;SDS_P1;SDS_P2;PMS_P1;PMS_P2;Temp;Humidity;BMP_temperature;BMP_pressure;BME280_temperature;BME280_humidity;BME280_pressure;Samples;Min_cycle;Max_cycle;Signal;HPM_P1;HPM_P2
2023/07/13 00:01:53;;;;;;;24.80;23.00;;;15.70;99.90;;;;;;4996576;28;20042;-70
2023/07/13 00:04:23;;;;;;;25.42;23.33;;;15.60;99.90;;;;;;4996557;28;20133;-69
2023/07/13 00:06:50;;;;;;;24.27;22.33;;;15.40;99.90;;;;;;4996430;28;20038;-70
2023/07/13 00:09:18;;;;;;;23.73;21.83;;;15.40;99.90;;;;;;5000202;28;20050;-68
2023/07/13 00:11:47;;;;;;;23.88;21.75;;;15.30;99.90;;;;;;4997323;28;20049;-71
2023/07/13 00:14:15;;;;;;;23.25;21.55;;;15.10;99.90;;;;;;4995304;28;20041;-71
2023/07/13 00:16:43;;;;;;;23.02;21.35;;;15.00;99.90;;;;;;4997188;28;20038;-70
2023/07/13 00:19:12;;;;;;;23.42;21.25;;;15.00;99.90;;;;;;4995946;28;20042;-70
2023/07/13 00:21:39;;;;;;;23.60;21.50;;;15.00;99.90;;;;;;5000968;28;20044;-71
2023/07/13 00:24:15;;;;;;;23.48;21.38;;;14.90;99.90;;;;;;4997804;28;20046;-70
2023/07/13 00:26:45;;;;;;;22.85;21.25;;;14.80;99.90;;;;;;4996884;28;20041;-70
2023/07/13 00:29:13;;;;;;;22.90;21.20;;;14.80;99.90;;;;;;5010934;28;21147;-69
2023/07/13 00:31:40;;;;;;;23.05;21.20;;;14.80;99.90;;;;;;4998160;28;20038;-70
2023/07/13 00:34:07;;;;;;;23.38;21.52;;;14.90;99.90;;;;;;4993705;28;20086;-71
2023/07/13 00:36:34;;;;;;;22.40;20.75;;;14.90;99.90;;;;;;4993377;28;20115;-71
2023/07/13 00:39:01;;;;;;;23.98;21.98;;;14.90;99.90;;;;;;4996835;28;20046;-68
2023/07/13 00:41:27;;;;;;;23.13;21.50;;;14.90;99.90;;;;;;4995027;28;20042;-69
2023/07/13 00:43:55;;;;;;;24.15;22.08;;;14.90;99.90;;;;;;4998392;28;20049;-69
2023/07/13 00:46:28;;;;;;;25.58;22.30;;;14.80;99.90;;;;;;4991111;28;20034;-69
2023/07/13 00:48:58;;;;;;;23.73;21.63;;;14.70;99.90;;;;;;5008160;28;20046;-68
2023/07/13 00:51:47;;;;;;;23.13;21.20;;;14.70;99.90;;;;;;4995741;28;20048;-72
2023/07/13 00:54:22;;;;;;;22.65;20.65;;;14.70;99.90;;;;;;4992652;28;20128;-70
2023/07/13 00:56:53;;;;;;;23.65;21.63;;;14.60;99.90;;;;;;4992609;28;20042;-69
2023/07/13 00:59:21;;;;;;;24.27;22.08;;;14.60;99.90;;;;;;4997460;28;20050;-68
2023/07/13 01:01:49;;;;;;;23.30;21.33;;;14.50;99.90;;;;;;4996989;28;20037;-69
2023/07/13 01:04:17;;;;;;;23.40;21.58;;;14.40;99.90;;;;;;4994003;28;20050;-69
2023/07/13 01:06:46;;;;;;;24.30;21.90;;;14.20;99.90;;;;;;5015295;28;20530;-70
2023/07/13 01:09:15;;;;;;;22.05;20.25;;;14.00;99.90;;;;;;5002563;28;20046;-71
2023/07/13 01:11:42;;;;;;;21.48;20.05;;;14.00;99.90;;;;;;4993688;28;20124;-71
2023/07/13 01:14:09;;;;;;;21.23;19.70;;;14.00;99.90;;;;;;4999241;28;20042;-71
2023/07/13 01:16:37;;;;;;;21.95;20.45;;;13.80;99.90;;;;;;4998431;28;20526;-71
2023/07/13 01:19:21;;;;;;;21.30;19.75;;;13.70;99.90;;;;;;5016942;28;20588;-68
2023/07/13 01:21:50;;;;;;;23.23;21.23;;;13.60;99.90;;;;;;4996980;28;20038;-70
2023/07/13 01:24:17;;;;;;;22.70;20.85;;;13.60;99.90;;;;;;4998103;28;20030;-68
2023/07/13 01:26:44;;;;;;;24.08;22.17;;;13.60;99.90;;;;;;4996844;28;20111;-71
2023/07/13 01:29:11;;;;;;;22.67;20.83;;;13.60;99.90;;;;;;4998387;28;20112;-71
2023/07/13 01:31:38;;;;;;;21.50;20.02;;;13.80;99.90;;;;;;4997003;28;20073;-68
2023/07/13 01:34:05;;;;;;;23.00;21.40;;;13.70;99.90;;;;;;4999038;28;20100;-69
2023/07/13 01:36:33;;;;;;;22.13;20.27;;;13.70;99.90;;;;;;4998834;28;20038;-71
2023/07/13 01:39:00;;;;;;;21.70;19.70;;;13.70;99.90;;;;;;4998939;28;20054;-69
2023/07/13 01:41:27;;;;;;;22.33;20.27;;;13.60;99.90;;;;;;5001142;28;20504;-69
2023/07/13 01:43:53;;;;;;;25.40;19.90;;;13.50;99.90;;;;;;5002105;28;20064;-71
2023/07/13 01:46:20;;;;;;;21.70;20.00;;;13.40;99.90;;;;;;4994602;28;20053;-70
2023/07/13 01:48:51;;;;;;;22.25;20.23;;;13.30;99.90;;;;;;5001951;28;20054;-70
2023/07/13 01:51:19;;;;;;;21.95;19.98;;;13.40;99.90;;;;;;5000252;28;20050;-70
2023/07/13 01:53:46;;;;;;;20.35;18.85;;;13.40;99.90;;;;;;4998611;28;20159;-69
2023/07/13 01:56:12;;;;;;;21.02;19.45;;;13.40;99.90;;;;;;4998283;28;20046;-70
2023/07/13 01:58:40;;;;;;;23.00;20.75;;;13.30;99.90;;;;;;4998236;28;23346;-69
2023/07/13 02:01:06;;;;;;;22.98;20.92;;;13.30;99.90;;;;;;5013179;28;20050;-69
2023/07/13 02:03:33;;;;;;;21.60;19.63;;;13.30;99.90;;;;;;5014071;28;20105;-68
2023/07/13 02:06:00;;;;;;;21.23;19.23;;;13.50;99.90;;;;;;5011916;28;20054;-68
2023/07/13 02:08:27;;;;;;;21.27;19.17;;;13.40;99.90;;;;;;5004588;28;20034;-71
2023/07/13 02:10:54;;;;;;;20.88;19.17;;;13.40;99.90;;;;;;5002992;28;20539;-70
2023/07/13 02:13:21;;;;;;;23.13;18.33;;;13.40;99.90;;;;;;4995790;28;20050;-71
2023/07/13 02:15:51;;;;;;;21.17;19.08;;;13.40;99.90;;;;;;5001113;28;20626;-68
2023/07/13 02:18:19;;;;;;;21.20;19.20;;;13.40;99.90;;;;;;5002361;28;20038;-70
2023/07/13 02:20:46;;;;;;;22.42;19.67;;;13.30;99.90;;;;;;4997646;28;20061;-71
2023/07/13 02:23:12;;;;;;;21.40;19.05;;;13.40;99.90;;;;;;4999577;28;20162;-70
2023/07/13 02:25:39;;;;;;;19.98;18.02;;;13.40;99.90;;;;;;4998873;28;20042;-71
2023/07/13 02:28:07;;;;;;;20.38;18.88;;;13.50;99.90;;;;;;4999245;28;20054;-70
2023/07/13 02:30:35;;;;;;;20.35;18.63;;;13.40;99.90;;;;;;4999640;28;20080;-68
2023/07/13 02:33:02;;;;;;;20.77;18.98;;;13.40;99.90;;;;;;4998539;28;20129;-69
2023/07/13 02:35:28;;;;;;;21.17;19.23;;;13.50;99.90;;;;;;4996955;28;20061;-69
2023/07/13 02:37:58;;;;;;;21.25;19.33;;;13.50;99.90;;;;;;5000224;28;20129;-68
2023/07/13 02:40:24;;;;;;;22.05;20.13;;;13.50;99.90;;;;;;4994978;28;20057;-67
2023/07/13 02:42:51;;;;;;;22.25;20.20;;;13.60;99.90;;;;;;4997492;28;20719;-70
2023/07/13 02:45:20;;;;;;;23.90;21.48;;;13.60;99.90;;;;;;4995414;28;20046;-70
2023/07/13 02:47:47;;;;;;;22.27;20.45;;;13.50;99.90;;;;;;4996528;28;20034;-71
2023/07/13 02:50:14;;;;;;;23.25;21.33;;;13.50;99.90;;;;;;4998820;28;20671;-70
2023/07/13 02:52:41;;;;;;;23.23;20.90;;;13.50;99.90;;;;;;4997223;28;20096;-70
2023/07/13 02:55:08;;;;;;;22.50;20.65;;;13.60;99.90;;;;;;4995392;28;20046;-70
2023/07/13 02:57:37;;;;;;;22.75;20.70;;;13.60;99.90;;;;;;4997156;28;20100;-71
2023/07/13 03:00:05;;;;;;;22.63;20.50;;;13.50;99.90;;;;;;5000623;28;20054;-70
2023/07/13 03:02:33;;;;;;;23.00;20.88;;;13.50;99.90;;;;;;4997518;28;20042;-72
2023/07/13 03:05:01;;;;;;;22.45;20.40;;;13.50;99.90;;;;;;5010985;28;20048;-71
2023/07/13 03:07:29;;;;;;;22.63;20.33;;;13.40;99.90;;;;;;5005064;28;20053;-73
2023/07/13 03:09:57;;;;;;;21.17;19.50;;;13.40;99.90;;;;;;5027190;28;20037;-72
2023/07/13 03:12:27;;;;;;;22.65;20.35;;;13.40;99.90;;;;;;5023334;28;20100;-69
2023/07/13 03:14:54;;;;;;;22.83;20.90;;;13.40;99.90;;;;;;5010958;28;20130;-70
2023/07/13 03:17:22;;;;;;;20.58;19.08;;;13.40;99.90;;;;;;5015241;28;20587;-70
2023/07/13 03:19:51;;;;;;;21.63;19.88;;;13.50;99.90;;;;;;5000107;28;20092;-71
2023/07/13 03:22:19;;;;;;;20.52;18.88;;;13.50;99.90;;;;;;5000862;28;20042;-71
2023/07/13 03:24:48;;;;;;;21.52;19.23;;;13.50;99.90;;;;;;4998058;28;20728;-70
2023/07/13 03:27:17;;;;;;;21.17;19.13;;;13.50;99.90;;;;;;5000879;28;20108;-70
2023/07/13 03:29:45;;;;;;;22.27;20.00;;;13.60;99.90;;;;;;4997077;28;20042;-70
2023/07/13 03:32:13;;;;;;;20.85;19.17;;;13.60;99.90;;;;;;4997440;28;20534;-70
2023/07/13 03:34:40;;;;;;;21.60;19.60;;;13.50;99.90;;;;;;4998322;28;20053;-70
2023/07/13 03:37:06;;;;;;;21.05;19.45;;;13.60;99.90;;;;;;4999242;28;20046;-70
2023/07/13 03:39:35;;;;;;;22.00;19.90;;;13.50;99.90;;;;;;4994354;28;20658;-70
2023/07/13 03:42:02;;;;;;;22.92;20.35;;;13.50;99.90;;;;;;4997485;28;20116;-71
2023/07/13 03:44:29;;;;;;;21.60;19.42;;;13.50;99.90;;;;;;4997555;28;20046;-71
2023/07/13 03:46:57;;;;;;;23.10;20.95;;;13.50;99.90;;;;;;4997313;28;20590;-70
2023/07/13 03:49:23;;;;;;;22.58;20.67;;;13.50;99.90;;;;;;5008146;28;20042;-70
2023/07/13 03:51:50;;;;;;;22.00;20.40;;;13.50;99.90;;;;;;4999904;28;20607;-71
2023/07/13 03:54:20;;;;;;;22.20;20.60;;;13.50;99.90;;;;;;5015890;28;20045;-70
2023/07/13 03:56:47;;;;;;;22.08;20.40;;;13.50;99.90;;;;;;4995160;28;20045;-70
2023/07/13 03:59:15;;;;;;;24.00;21.65;;;13.50;99.90;;;;;;4996410;28;20046;-72
2023/07/13 04:01:44;;;;;;;22.88;20.98;;;13.50;99.90;;;;;;4997770;28;20062;-70
2023/07/13 04:04:11;;;;;;;23.48;21.50;;;13.50;99.90;;;;;;4988562;28;20057;-70
2023/07/13 04:06:38;;;;;;;23.92;21.90;;;13.50;99.90;;;;;;4982731;28;20036;-70
2023/07/13 04:09:05;;;;;;;22.95;20.75;;;13.50;99.90;;;;;;4978125;28;20046;-70
2023/07/13 04:11:33;;;;;;;22.77;20.60;;;13.50;99.90;;;;;;4983001;28;20050;-71
2023/07/13 04:14:00;;;;;;;22.45;20.63;;;13.50;99.90;;;;;;4984659;28;20086;-70
2023/07/13 04:16:26;;;;;;;22.30;20.27;;;13.50;99.90;;;;;;4982479;28;20085;-70
2023/07/13 04:18:57;;;;;;;21.52;19.88;;;13.60;99.90;;;;;;4981817;28;20046;-71
2023/07/13 04:21:24;;;;;;;21.92;20.17;;;13.60;99.90;;;;;;4982352;28;20690;-71
2023/07/13 04:23:50;;;;;;;23.10;21.00;;;13.60;99.90;;;;;;4976901;28;20513;-70
2023/07/13 04:26:20;;;;;;;21.90;20.05;;;13.70;99.90;;;;;;4981998;28;20042;-70
2023/07/13 04:28:48;;;;;;;22.00;20.17;;;13.70;99.90;;;;;;4977172;28;20039;-70
2023/07/13 04:31:14;;;;;;;22.08;20.42;;;13.70;99.90;;;;;;4982957;28;20045;-70
2023/07/13 04:33:42;;;;;;;22.08;20.38;;;13.80;99.90;;;;;;4980755;28;20108;-70
2023/07/13 04:36:09;;;;;;;22.48;20.48;;;13.90;99.90;;;;;;4985612;28;20101;-70
2023/07/13 04:38:36;;;;;;;22.42;20.58;;;13.90;99.90;;;;;;4985539;28;20038;-71
2023/07/13 04:41:06;;;;;;;23.02;21.13;;;14.00;99.90;;;;;;4989119;28;20773;-71
2023/07/13 04:43:34;;;;;;;24.83;22.45;;;14.20;99.90;;;;;;4982210;28;20046;-71
2023/07/13 04:46:10;;;;;;;23.40;21.45;;;14.30;99.90;;;;;;4988012;28;20073;-71
2023/07/13 04:48:38;;;;;;;24.15;22.10;;;14.50;99.90;;;;;;4983239;28;20054;-71
2023/07/13 04:51:05;;;;;;;23.55;21.75;;;14.50;99.90;;;;;;4984679;28;20651;-71
2023/07/13 04:53:34;;;;;;;23.95;21.95;;;14.60;99.90;;;;;;4980100;28;20607;-71
2023/07/13 04:56:01;;;;;;;23.33;21.52;;;14.80;99.90;;;;;;4987496;28;20042;-71
2023/07/13 04:58:28;;;;;;;23.38;21.67;;;14.90;99.90;;;;;;4982212;28;20046;-70
2023/07/13 05:01:06;;;;;;;24.48;22.70;;;15.00;99.90;;;;;;4982079;28;20042;-71
2023/07/13 05:03:34;;;;;;;24.40;22.30;;;15.10;99.90;;;;;;4982574;28;20042;-71
2023/07/13 05:06:04;;;;;;;24.73;22.90;;;15.20;99.90;;;;;;4984627;28;20041;-71
2023/07/13 05:08:31;;;;;;;26.13;23.90;;;15.30;99.90;;;;;;4984577;28;20575;-71
2023/07/13 05:11:01;;;;;;;25.08;23.38;;;15.40;99.90;;;;;;4984413;28;20972;-72
2023/07/13 05:13:27;;;;;;;24.63;22.90;;;15.60;99.90;;;;;;4980434;28;20058;-72
2023/07/13 05:16:01;;;;;;;25.85;23.75;;;15.80;99.90;;;;;;4979478;28;20038;-71
2023/07/13 05:18:29;;;;;;;25.80;23.42;;;16.00;99.90;;;;;;4998967;28;20042;-71
2023/07/13 05:21:00;;;;;;;25.70;23.52;;;16.20;99.90;;;;;;4987018;28;20038;-70
2023/07/13 05:23:29;;;;;;;24.25;22.35;;;16.30;99.90;;;;;;4984187;28;20046;-71
2023/07/13 05:25:56;;;;;;;23.98;22.38;;;16.50;99.90;;;;;;4981986;28;20089;-70
2023/07/13 05:28:23;;;;;;;24.95;23.05;;;16.50;99.90;;;;;;4982525;28;20059;-70
2023/07/13 05:30:50;;;;;;;24.85;22.75;;;16.40;99.90;;;;;;4984606;28;20121;-71
2023/07/13 05:33:17;;;;;;;26.35;23.90;;;16.50;99.90;;;;;;4984087;28;20057;-71
2023/07/13 05:35:44;;;;;;;26.42;24.17;;;16.60;99.90;;;;;;4980836;28;20101;-71
2023/07/13 05:38:11;;;;;;;25.33;23.48;;;16.90;99.90;;;;;;4983754;28;20049;-71
2023/07/13 05:40:37;;;;;;;25.92;23.48;;;17.00;99.90;;;;;;4979680;28;20034;-71
2023/07/13 05:43:04;;;;;;;25.33;23.30;;;16.90;99.90;;;;;;4983108;28;20034;-71
2023/07/13 05:45:31;;;;;;;24.40;22.58;;;16.90;99.90;;;;;;4984652;28;20602;-70
2023/07/13 05:47:58;;;;;;;24.83;22.83;;;17.00;99.90;;;;;;4985429;28;20056;-71
2023/07/13 05:50:26;;;;;;;25.13;22.67;;;17.20;99.90;;;;;;4982368;28;20035;-70
2023/07/13 05:52:53;;;;;;;24.45;22.42;;;17.30;99.90;;;;;;4981675;28;20047;-71
2023/07/13 05:55:20;;;;;;;24.70;22.90;;;17.20;99.90;;;;;;4981878;28;20038;-71
2023/07/13 05:57:47;;;;;;;23.80;22.10;;;17.30;99.90;;;;;;4979649;28;20049;-70
2023/07/13 06:00:14;;;;;;;26.55;24.35;;;17.30;99.90;;;;;;4983390;28;20493;-70
2023/07/13 06:02:42;;;;;;;25.80;23.88;;;17.30;99.90;;;;;;4982237;28;20718;-70
2023/07/13 06:05:09;;;;;;;26.67;24.60;;;17.30;99.90;;;;;;4982918;28;20815;-70
2023/07/13 06:07:36;;;;;;;25.80;23.75;;;17.30;99.90;;;;;;5004315;28;20046;-70
2023/07/13 06:10:03;;;;;;;26.02;23.85;;;17.30;99.90;;;;;;5000156;28;20046;-70
2023/07/13 06:12:29;;;;;;;26.42;24.45;;;17.20;99.90;;;;;;4982859;28;20421;-70
2023/07/13 06:14:57;;;;;;;25.75;23.65;;;17.40;99.90;;;;;;4981233;28;20112;-71
2023/07/13 06:17:23;;;;;;;25.77;23.60;;;17.50;99.90;;;;;;4983715;28;20555;-71
2023/07/13 06:19:50;;;;;;;26.80;24.70;;;17.50;99.90;;;;;;4985431;28;20034;-70
2023/07/13 06:22:17;;;;;;;26.05;24.02;;;17.60;99.90;;;;;;4984998;28;20515;-71
2023/07/13 06:24:44;;;;;;;26.42;24.50;;;17.70;99.90;;;;;;4979373;28;20652;-70
2023/07/13 06:27:11;;;;;;;26.85;24.88;;;17.60;99.90;;;;;;4981025;28;20408;-71
2023/07/13 06:29:38;;;;;;;27.30;25.13;;;17.90;99.90;;;;;;4978246;28;20038;-71
2023/07/13 06:32:05;;;;;;;26.88;24.60;;;18.00;99.90;;;;;;4980040;28;20077;-71
2023/07/13 06:34:32;;;;;;;26.50;24.50;;;18.00;99.90;;;;;;4983210;28;20499;-71
2023/07/13 06:36:59;;;;;;;25.98;24.08;;;18.00;99.90;;;;;;4978759;28;20053;-71
2023/07/13 06:39:26;;;;;;;26.08;24.08;;;18.10;99.90;;;;;;4983903;28;20038;-71
2023/07/13 06:41:52;;;;;;;26.00;24.13;;;18.10;99.90;;;;;;4984586;28;20580;-71
2023/07/13 06:44:19;;;;;;;26.05;23.85;;;18.00;99.90;;;;;;4982846;28;20163;-71
2023/07/13 06:46:45;;;;;;;26.23;24.27;;;18.00;99.90;;;;;;4984507;28;20069;-71
2023/07/13 06:49:12;;;;;;;26.63;24.52;;;17.90;99.90;;;;;;4983431;28;20046;-71
2023/07/13 06:51:39;;;;;;;26.58;24.45;;;17.50;99.90;;;;;;4984525;28;20050;-73
2023/07/13 06:54:06;;;;;;;26.85;24.63;;;17.40;99.90;;;;;;4985644;28;20500;-73
2023/07/13 06:56:32;;;;;;;26.83;25.02;;;17.70;99.90;;;;;;4981442;28;20121;-73
2023/07/13 06:58:59;;;;;;;26.35;23.98;;;17.70;99.90;;;;;;4985934;28;20053;-74
2023/07/13 07:01:26;;;;;;;26.58;24.58;;;17.60;99.90;;;;;;4986221;28;20070;-79
2023/07/13 07:03:53;;;;;;;26.42;24.23;;;17.80;99.90;;;;;;4993438;28;20121;-76
2023/07/13 07:06:23;;;;;;;27.35;24.83;;;18.10;99.90;;;;;;5002235;28;20042;-78
2023/07/13 07:08:52;;;;;;;25.60;23.67;;;18.10;99.90;;;;;;4996383;28;20050;-73
2023/07/13 07:11:23;;;;;;;26.15;24.10;;;18.10;99.90;;;;;;4982485;28;20049;-74
2023/07/13 07:13:52;;;;;;;26.70;24.38;;;18.00;99.90;;;;;;4982449;28;20046;-73
2023/07/13 07:16:20;;;;;;;25.35;23.52;;;18.00;99.90;;;;;;4994084;28;20050;-73
2023/07/13 07:18:47;;;;;;;26.42;24.33;;;18.00;99.90;;;;;;4985226;28;20077;-73
2023/07/13 07:21:14;;;;;;;26.83;24.80;;;17.90;99.90;;;;;;4993397;28;20034;-74
2023/07/13 07:23:42;;;;;;;26.90;24.50;;;17.70;99.90;;;;;;4999940;28;20504;-74
2023/07/13 07:26:10;;;;;;;29.60;27.38;;;17.60;99.90;;;;;;4992615;28;20116;-74
2023/07/13 07:28:37;;;;;;;28.42;26.02;;;17.50;99.90;;;;;;4989361;28;20046;-74
2023/07/13 07:31:06;;;;;;;28.40;26.10;;;17.60;99.90;;;;;;4988112;28;20057;-74
2023/07/13 07:33:36;;;;;;;29.48;26.75;;;17.80;99.90;;;;;;4968918;28;20390;-74
2023/07/13 07:36:04;;;;;;;28.52;26.00;;;18.00;99.90;;;;;;4985090;28;20046;-75
2023/07/13 07:38:33;;;;;;;28.23;25.90;;;18.20;99.90;;;;;;4990858;28;20049;-74
2023/07/13 07:41:04;;;;;;;28.55;26.25;;;18.10;99.90;;;;;;4990100;28;20077;-73
2023/07/13 07:43:34;;;;;;;28.55;26.23;;;18.40;99.90;;;;;;5001775;28;20073;-75
2023/07/13 07:46:01;;;;;;;28.48;26.27;;;18.70;99.90;;;;;;4996800;28;20043;-74
2023/07/13 07:48:30;;;;;;;28.05;25.85;;;18.70;99.90;;;;;;4984673;28;20038;-75
2023/07/13 07:50:56;;;;;;;27.90;25.85;;;18.70;99.90;;;;;;4984186;28;20125;-74
2023/07/13 07:53:23;;;;;;;26.55;24.70;;;18.70;99.90;;;;;;4987669;28;20057;-74
2023/07/13 07:55:51;;;;;;;28.50;26.25;;;18.80;99.90;;;;;;4976321;28;20046;-74
2023/07/13 07:58:21;;;;;;;28.83;26.70;;;18.60;99.90;;;;;;4978742;28;20038;-75
2023/07/13 08:00:51;;;;;;;29.35;26.95;;;18.60;99.90;;;;;;4983327;28;20041;-74
2023/07/13 08:03:20;;;;;;;28.45;26.27;;;18.60;99.90;;;;;;4980520;28;20046;-73
2023/07/13 08:05:53;;;;;;;27.42;25.27;;;18.80;99.90;;;;;;4981254;28;20053;-75
2023/07/13 08:08:23;;;;;;;28.08;25.90;;;18.80;99.90;;;;;;4993813;28;20042;-75
2023/07/13 08:10:50;;;;;;;27.30;24.95;;;18.70;99.90;;;;;;4983806;28;20035;-74
2023/07/13 08:13:20;;;;;;;30.13;27.50;;;18.80;99.90;;;;;;4978392;28;20046;-74
2023/07/13 08:15:47;;;;;;;27.83;25.63;;;19.00;99.90;;;;;;4977056;28;20070;-74
2023/07/13 08:18:15;;;;;;;28.08;26.02;;;19.20;99.90;;;;;;4982220;28;20242;-74
2023/07/13 08:20:42;;;;;;;29.20;26.92;;;19.40;99.90;;;;;;4984210;28;20042;-74
2023/07/13 08:23:10;;;;;;;29.30;27.08;;;19.40;99.90;;;;;;4980956;28;20054;-74
2023/07/13 08:25:37;;;;;;;28.67;26.45;;;19.50;99.90;;;;;;4987947;28;20056;-74
2023/07/13 08:28:04;;;;;;;29.40;26.95;;;19.30;99.90;;;;;;4982200;28;20081;-74
2023/07/13 08:30:31;;;;;;;27.90;25.60;;;19.30;99.90;;;;;;4985058;28;20052;-74
2023/07/13 08:32:58;;;;;;;27.98;25.92;;;19.30;99.90;;;;;;4980798;28;20582;-73
2023/07/13 08:35:25;;;;;;;27.58;25.58;;;19.20;99.90;;;;;;4981665;28;20057;-73
2023/07/13 08:37:52;;;;;;;26.88;24.77;;;19.10;99.90;;;;;;4982634;28;20042;-73
2023/07/13 08:40:25;;;;;;;28.48;25.95;;;19.00;99.90;;;;;;4985359;28;20178;-73
2023/07/13 08:42:58;;;;;;;27.70;25.65;;;19.00;99.90;;;;;;4979390;28;20155;-73
2023/07/13 08:45:48;;;;;;;28.75;26.08;;;18.90;99.90;;;;;;4978899;28;20650;-74
2023/07/13 08:48:26;;;;;;;29.88;27.60;;;18.90;99.90;;;;;;4986558;28;20050;-73
2023/07/13 08:51:01;;;;;;;31.30;28.77;;;19.00;99.90;;;;;;4980664;28;20034;-73
2023/07/13 08:53:38;;;;;;;29.05;26.58;;;19.30;99.90;;;;;;4977144;28;20105;-74
2023/07/13 08:56:11;;;;;;;26.80;24.63;;;19.60;99.90;;;;;;4966443;28;20461;-73
2023/07/13 08:58:39;;;;;;;30.05;27.83;;;19.90;99.90;;;;;;4987751;28;20042;-73
2023/07/13 09:01:29;;;;;;;28.52;26.42;;;19.90;99.90;;;;;;4982132;28;20050;-73
2023/07/13 09:03:59;;;;;;;28.52;26.48;;;20.00;99.90;;;;;;4984838;28;20501;-74
2023/07/13 09:06:46;;;;;;;30.20;27.60;;;19.70;99.90;;;;;;4985126;28;20070;-73
2023/07/13 09:09:52;;;;;;;31.15;28.60;;;19.90;99.90;;;;;;4973115;28;20047;-74
2023/07/13 09:12:22;;;;;;;28.55;26.45;;;20.50;99.90;;;;;;4978050;28;20202;-74
2023/07/13 09:14:53;;;;;;;28.63;26.42;;;20.70;99.90;;;;;;4973193;28;20046;-74
2023/07/13 09:17:28;;;;;;;29.38;26.90;;;20.30;99.90;;;;;;4979850;28;21092;-74
2023/07/13 09:20:29;;;;;;;28.83;26.92;;;20.20;99.90;;;;;;4974365;28;20094;-73
2023/07/13 09:22:59;;;;;;;29.70;27.17;;;20.00;99.90;;;;;;4996799;28;20186;-74
2023/07/13 09:25:34;;;;;;;31.95;29.55;;;19.70;99.90;;;;;;4993914;28;20077;-73
2023/07/13 09:28:14;;;;;;;30.40;28.10;;;20.00;99.90;;;;;;4983514;28;20054;-74
2023/07/13 09:30:53;;;;;;;32.05;29.30;;;20.30;99.90;;;;;;4984325;28;20093;-74
2023/07/13 09:33:20;;;;;;;31.98;29.50;;;20.50;99.90;;;;;;4983705;28;20061;-73
2023/07/13 09:35:47;;;;;;;28.05;25.23;;;20.90;99.90;;;;;;4982806;28;20039;-74
2023/07/13 09:38:17;;;;;;;28.38;25.85;;;21.00;99.90;;;;;;4977700;28;20050;-74
2023/07/13 09:41:13;;;;;;;27.20;25.23;;;20.80;99.90;;;;;;4982733;28;20042;-74
2023/07/13 09:44:11;;;;;;;33.92;31.23;;;20.40;99.90;;;;;;4976888;28;20547;-73
2023/07/13 09:46:43;;;;;;;28.13;25.63;;;20.30;99.90;;;;;;4982735;28;20046;-74
2023/07/13 09:49:11;;;;;;;28.50;26.27;;;20.40;99.90;;;;;;4982571;28;20109;-74
2023/07/13 09:51:41;;;;;;;26.65;24.75;;;20.60;99.90;;;;;;4980988;28;20042;-72
2023/07/13 09:54:24;;;;;;;28.17;25.48;;;20.80;99.90;;;;;;4984011;28;20085;-73
2023/07/13 09:56:58;;;;;;;31.55;29.15;;;20.80;99.90;;;;;;4972972;28;20437;-74
2023/07/13 09:59:34;;;;;;;28.30;26.08;;;20.70;99.90;;;;;;4982196;28;20038;-74
2023/07/13 10:02:02;;;;;;;27.63;25.52;;;21.20;99.90;;;;;;4980515;28;20560;-74
2023/07/13 10:04:33;;;;;;;28.98;26.20;;;21.00;99.90;;;;;;5012357;28;20046;-73
2023/07/13 10:07:13;;;;;;;31.05;28.63;;;20.70;99.90;;;;;;4981763;28;20042;-74
2023/07/13 10:09:57;;;;;;;28.45;25.98;;;20.80;99.90;;;;;;4979581;28;20050;-75
2023/07/13 10:12:25;;;;;;;32.67;29.90;;;20.60;99.90;;;;;;4980867;28;20045;-74
2023/07/13 10:14:55;;;;;;;31.52;28.85;;;20.60;99.90;;;;;;4989502;28;20046;-74
2023/07/13 10:17:44;;;;;;;31.65;29.08;;;20.70;99.90;;;;;;4984614;28;20076;-74
2023/07/13 10:20:12;;;;;;;31.58;29.38;;;21.30;99.90;;;;;;4994754;28;20122;-73
2023/07/13 10:22:50;;;;;;;31.00;28.73;;;22.00;99.90;;;;;;4981380;28;20042;-73
2023/07/13 10:25:22;;;;;;;33.08;30.70;;;21.90;99.90;;;;;;4985618;28;20389;-73
2023/07/13 10:27:56;;;;;;;31.38;28.95;;;21.90;99.90;;;;;;5003421;28;20037;-73
2023/07/13 10:30:33;;;;;;;32.57;30.13;;;22.00;99.90;;;;;;5001851;28;20054;-74
2023/07/13 10:33:05;;;;;;;30.70;27.80;;;22.30;99.90;;;;;;5015449;28;20584;-74
2023/07/13 10:35:33;;;;;;;30.15;27.48;;;22.00;99.90;;;;;;5000814;28;20062;-74
2023/07/13 10:38:11;;;;;;;32.00;29.38;;;21.90;99.90;;;;;;5001372;28;20072;-74
2023/07/13 10:40:42;;;;;;;31.55;29.23;;;22.00;99.90;;;;;;4999960;28;20112;-74
2023/07/13 10:43:23;;;;;;;31.45;29.05;;;22.10;99.90;;;;;;5001400;28;20045;-74
2023/07/13 10:45:51;;;;;;;29.27;26.95;;;22.40;99.90;;;;;;5001221;28;20100;-73
2023/07/13 10:48:20;;;;;;;28.83;26.80;;;22.50;99.90;;;;;;5005021;28;20046;-73
2023/07/13 10:50:50;;;;;;;29.98;27.63;;;22.10;99.90;;;;;;5004949;28;20617;-73
2023/07/13 10:53:32;;;;;;;30.20;28.13;;;21.90;99.90;;;;;;4996792;28;20041;-73
2023/07/13 10:56:00;;;;;;;30.00;27.60;;;22.00;99.90;;;;;;5001895;28;20496;-73
2023/07/13 10:58:43;;;;;;;30.10;27.80;;;21.70;99.90;;;;;;5002105;28;20540;-74
2023/07/13 11:01:13;;;;;;;35.28;32.80;;;21.40;99.90;;;;;;4996919;28;20061;-73
2023/07/13 11:03:44;;;;;;;33.92;31.40;;;21.50;99.90;;;;;;4996573;28;20050;-73
2023/07/13 11:06:13;;;;;;;28.80;26.25;;;21.90;99.90;;;;;;5003065;28;20699;-73
2023/07/13 11:08:48;;;;;;;28.60;26.33;;;22.30;99.90;;;;;;4995616;28;20050;-74
2023/07/13 11:11:35;;;;;;;29.23;26.98;;;21.90;99.90;;;;;;5002766;28;20619;-73
2023/07/13 11:14:24;;;;;;;28.48;26.38;;;21.70;99.90;;;;;;4998473;28;20578;-74
2023/07/13 11:16:51;;;;;;;31.67;28.77;;;21.40;99.90;;;;;;5006762;28;20104;-73
2023/07/13 11:19:18;;;;;;;31.80;29.20;;;21.30;99.90;;;;;;5003497;28;20047;-73
2023/07/13 11:22:09;;;;;;;34.65;31.85;;;21.60;99.90;;;;;;5004482;28;20276;-75
2023/07/13 11:25:00;;;;;;;31.35;28.65;;;22.20;99.90;;;;;;5011993;28;20143;-73
2023/07/13 11:27:42;;;;;;;34.47;31.90;;;22.70;99.90;;;;;;5029912;28;20034;-73
2023/07/13 11:30:18;;;;;;;33.92;31.40;;;23.20;99.90;;;;;;5026462;28;20526;-74
2023/07/13 11:32:49;;;;;;;30.88;28.30;;;23.30;99.90;;;;;;4999739;28;20041;-74
2023/07/13 11:35:23;;;;;;;28.58;26.27;;;23.30;99.90;;;;;;5001111;28;20077;-75
2023/07/13 11:37:51;;;;;;;29.75;27.45;;;23.00;99.90;;;;;;4982527;28;20041;-75
2023/07/13 11:40:18;;;;;;;30.85;28.20;;;22.60;99.90;;;;;;4981048;28;20144;-75
2023/07/13 11:42:44;;;;;;;30.17;27.67;;;22.20;99.90;;;;;;4981064;28;20161;-74
2023/07/13 11:45:22;;;;;;;30.23;27.83;;;22.00;99.90;;;;;;4979784;28;20050;-74
2023/07/13 11:48:01;;;;;;;30.67;28.23;;;22.10;99.90;;;;;;4981068;28;20046;-74
2023/07/13 11:50:28;;;;;;;30.67;28.02;;;22.20;99.90;;;;;;4979762;28;20484;-74
2023/07/13 11:52:59;;;;;;;32.53;30.13;;;22.20;99.90;;;;;;4977157;28;20050;-74
2023/07/13 11:55:27;;;;;;;33.33;30.98;;;21.90;99.90;;;;;;4980524;28;20108;-74
2023/07/13 11:57:59;;;;;;;33.28;30.77;;;21.90;99.90;;;;;;4980235;28;20553;-74
2023/07/13 12:00:31;;;;;;;29.48;26.98;;;22.20;99.90;;;;;;4980371;28;20068;-74
2023/07/13 12:03:04;;;;;;;29.05;27.02;;;22.40;99.90;;;;;;4974951;28;20074;-75
2023/07/13 12:05:32;;;;;;;29.70;27.30;;;22.30;99.90;;;;;;4979315;28;20074;-74
2023/07/13 12:08:07;;;;;;;35.10;32.53;;;22.00;99.90;;;;;;4983121;28;20038;-74
2023/07/13 12:10:34;;;;;;;36.50;33.83;;;21.80;99.90;;;;;;4977906;28;20912;-74
2023/07/13 12:13:04;;;;;;;31.33;28.90;;;22.10;99.90;;;;;;4976070;28;20626;-74
2023/07/13 12:15:37;;;;;;;29.15;26.90;;;22.30;99.90;;;;;;4985180;28;20046;-74
2023/07/13 12:18:28;;;;;;;30.25;27.90;;;22.30;99.90;;;;;;4979172;28;20053;-74
2023/07/13 12:20:58;;;;;;;32.25;29.67;;;22.20;99.90;;;;;;5009959;28;20049;-74
2023/07/13 12:23:33;;;;;;;32.05;29.58;;;22.10;99.90;;;;;;4977840;28;20050;-74
2023/07/13 12:26:03;;;;;;;31.17;28.67;;;22.00;99.90;;;;;;4980076;28;20112;-74
2023/07/13 12:28:47;;;;;;;30.13;27.98;;;22.20;99.90;;;;;;4979251;28;20050;-73
2023/07/13 12:31:25;;;;;;;30.25;28.05;;;22.50;99.90;;;;;;4979237;28;20074;-75
2023/07/13 12:34:00;;;;;;;30.50;28.30;;;22.30;99.90;;;;;;4979202;28;20058;-74
2023/07/13 12:36:31;;;;;;;30.20;28.10;;;22.00;99.90;;;;;;5002727;28;20039;-74
2023/07/13 12:39:03;;;;;;;31.85;29.63;;;21.90;99.90;;;;;;4980686;28;20112;-74
2023/07/13 12:41:32;;;;;;;30.20;27.90;;;21.80;99.90;;;;;;4979063;28;20045;-73
2023/07/13 12:43:59;;;;;;;29.23;27.13;;;22.10;99.90;;;;;;4985735;28;20054;-73